createdAt,value
2023-01-19T00:00:56.407Z,79.13
2023-01-19T00:03:23.160Z,78.37
2023-01-19T00:05:50.141Z,77.92
2023-01-19T00:08:19.892Z,78.50
2023-01-19T00:10:48.308Z,78.82
2023-01-19T00:13:15.384Z,80.52
2023-01-19T00:15:42.381Z,81.77
2023-01-19T00:18:10.875Z,82.36
2023-01-19T00:20:39.264Z,82.78
2023-01-19T00:23:06.422Z,83.01
2023-01-19T00:25:33.588Z,81.50
2023-01-19T00:28:01.672Z,80.19
2023-01-19T00:30:31.434Z,79.79
2023-01-19T00:33:01.435Z,80.56
2023-01-19T00:35:28.882Z,81.96
2023-01-19T00:37:58.945Z,82.30
2023-01-19T00:40:26.066Z,82.13
2023-01-19T00:42:53.783Z,82.25
2023-01-19T00:45:22.026Z,81.69
2023-01-19T00:47:49.098Z,79.83
2023-01-19T00:50:16.486Z,80.20
2023-01-19T00:52:43.885Z,80.48
2023-01-19T00:55:11.711Z,81.26
2023-01-19T00:57:39.947Z,81.96
2023-01-19T01:00:08.591Z,82.53
2023-01-19T01:02:36.670Z,82.72
2023-01-19T01:05:06.546Z,82.20
2023-01-19T01:07:34.788Z,82.63
2023-01-19T01:10:01.889Z,82.08
2023-01-19T01:12:31.399Z,82.18
2023-01-19T01:14:58.499Z,80.13
2023-01-19T01:17:26.342Z,80.52
2023-01-19T01:19:53.614Z,80.71
2023-01-19T01:22:20.794Z,81.75
2023-01-19T01:24:52.733Z,80.70
2023-01-19T01:27:19.774Z,82.07
2023-01-19T01:29:46.975Z,80.98
2023-01-19T01:32:14.702Z,78.25
2023-01-19T01:34:44.341Z,76.72
2023-01-19T01:37:11.481Z,77.08
2023-01-19T01:39:41.071Z,78.87
2023-01-19T01:42:32.171Z,81.57
2023-01-19T01:45:04.547Z,82.84
2023-01-19T01:47:38.623Z,82.65
2023-01-19T01:50:21.498Z,83.76
2023-01-19T01:53:06.491Z,81.90
2023-01-19T01:55:35.048Z,81.63
2023-01-19T01:58:04.930Z,80.95
2023-01-19T02:00:33.011Z,81.90
2023-01-19T02:03:00.407Z,80.26
2023-01-19T02:05:34.671Z,80.81
2023-01-19T02:08:08.504Z,81.81
2023-01-19T02:10:35.354Z,83.03
2023-01-19T02:13:05.483Z,83.60
2023-01-19T02:15:32.602Z,83.76
2023-01-19T02:18:00.500Z,79.47
2023-01-19T02:20:30.473Z,79.31
2023-01-19T02:23:00.848Z,81.81
2023-01-19T02:25:28.106Z,80.89
2023-01-19T02:27:55.327Z,79.02
2023-01-19T02:30:22.125Z,78.52
2023-01-19T02:32:51.631Z,76.24
2023-01-19T02:35:18.800Z,77.46
2023-01-19T02:37:46.956Z,77.53
2023-01-19T02:40:19.830Z,77.94
2023-01-19T02:42:48.752Z,77.82
2023-01-19T02:45:19.849Z,76.78
2023-01-19T02:47:51.182Z,75.59
2023-01-19T02:50:51.396Z,78.14
2023-01-19T02:53:49.985Z,78.53
2023-01-19T02:56:38.711Z,80.07
2023-01-19T02:59:31.812Z,80.62
2023-01-19T03:02:10.571Z,80.86
2023-01-19T03:05:07.852Z,81.60
2023-01-19T03:07:55.500Z,81.51
2023-01-19T03:10:45.819Z,82.17
2023-01-19T03:13:18.489Z,81.75
2023-01-19T03:16:16.129Z,81.29
2023-01-19T03:18:46.595Z,80.56
2023-01-19T03:21:13.839Z,82.47
2023-01-19T03:23:41.207Z,82.72
2023-01-19T03:26:10.897Z,82.78
2023-01-19T03:28:39.093Z,82.18
2023-01-19T03:31:12.983Z,82.35
2023-01-19T03:33:44.056Z,80.25
2023-01-19T03:36:55.948Z,81.34
2023-01-19T03:39:23.569Z,81.47
2023-01-19T03:42:12.999Z,81.63
2023-01-19T03:44:59.923Z,81.54
2023-01-19T03:47:46.584Z,81.33
2023-01-19T03:50:15.007Z,82.30
2023-01-19T03:52:47.416Z,82.25
2023-01-19T03:55:32.797Z,82.35
2023-01-19T03:58:00.579Z,82.14
2023-01-19T04:00:27.777Z,81.67
2023-01-19T04:02:54.629Z,81.15
2023-01-19T04:05:21.644Z,80.78
2023-01-19T04:07:49.829Z,82.19
2023-01-19T04:10:17.534Z,82.90
2023-01-19T04:12:44.694Z,83.10
2023-01-19T04:15:11.556Z,83.33
2023-01-19T04:17:38.565Z,83.09
2023-01-19T04:20:05.976Z,83.00
2023-01-19T04:22:33.235Z,82.78
2023-01-19T04:25:00.390Z,82.07
2023-01-19T04:27:28.289Z,82.52
2023-01-19T04:29:55.516Z,82.84
2023-01-19T04:32:23.713Z,83.03
2023-01-19T04:34:50.832Z,82.94
2023-01-19T04:37:17.518Z,82.43
2023-01-19T04:39:45.513Z,81.75
2023-01-19T04:42:12.524Z,81.63
2023-01-19T04:44:40.227Z,82.21
2023-01-19T04:47:10.022Z,82.40
2023-01-19T04:49:38.400Z,83.13
2023-01-19T04:52:06.229Z,83.63
2023-01-19T04:54:33.411Z,83.59
2023-01-19T04:57:00.611Z,83.73
2023-01-19T04:59:27.606Z,82.29
2023-01-19T05:01:54.915Z,82.87
2023-01-19T05:04:22.179Z,84.01
2023-01-19T05:07:04.148Z,83.86
2023-01-19T05:09:31.059Z,83.55
2023-01-19T05:12:03.522Z,83.42
2023-01-19T05:14:30.481Z,83.38
2023-01-19T05:16:57.342Z,82.35
2023-01-19T05:19:27.794Z,82.09
2023-01-19T05:21:54.960Z,81.35
2023-01-19T05:24:27.907Z,81.89
2023-01-19T05:26:55.265Z,81.87
2023-01-19T05:29:22.437Z,81.57
2023-01-19T05:31:50.068Z,81.87
2023-01-19T05:34:19.238Z,82.94
2023-01-19T05:36:47.219Z,83.40
2023-01-19T05:39:14.452Z,83.43
2023-01-19T05:41:42.318Z,83.10
2023-01-19T05:44:12.508Z,82.67
2023-01-19T05:46:40.096Z,82.54
2023-01-19T05:49:07.778Z,82.29
2023-01-19T05:51:35.301Z,82.38
2023-01-19T05:54:02.462Z,81.69
2023-01-19T05:56:29.559Z,81.30
2023-01-19T05:58:56.625Z,81.35
2023-01-19T06:01:23.766Z,81.85
2023-01-19T06:03:53.467Z,82.18
2023-01-19T06:06:20.296Z,82.23
2023-01-19T06:08:48.323Z,82.61
2023-01-19T06:11:15.099Z,82.95
2023-01-19T06:13:42.295Z,83.31
2023-01-19T06:16:09.082Z,83.42
2023-01-19T06:18:35.812Z,83.63
2023-01-19T06:21:07.865Z,83.66
2023-01-19T06:23:34.686Z,83.57
2023-01-19T06:26:02.174Z,83.40
2023-01-19T06:28:28.905Z,83.25
2023-01-19T06:30:55.981Z,83.19
2023-01-19T06:33:23.217Z,83.38
2023-01-19T06:35:50.756Z,83.39
2023-01-19T06:38:18.563Z,83.35
2023-01-19T06:40:46.881Z,82.99
2023-01-19T06:43:13.657Z,82.73
2023-01-19T06:45:40.686Z,82.55
2023-01-19T06:48:08.300Z,82.40
2023-01-19T06:50:35.923Z,82.63
2023-01-19T06:53:03.331Z,82.15
2023-01-19T06:55:31.223Z,82.29
2023-01-19T06:57:58.642Z,82.22
2023-01-19T07:00:25.651Z,82.05
2023-01-19T07:02:52.417Z,81.90
2023-01-19T07:05:19.429Z,81.80
2023-01-19T07:07:58.590Z,82.04
2023-01-19T07:10:25.287Z,81.25
2023-01-19T07:12:52.116Z,81.81
2023-01-19T07:15:19.222Z,81.92
2023-01-19T07:17:46.353Z,82.38
2023-01-19T07:20:13.260Z,82.03
2023-01-19T07:22:45.392Z,81.60
2023-01-19T07:25:13.731Z,81.31
2023-01-19T07:27:40.863Z,82.50
2023-01-19T07:30:08.657Z,82.15
2023-01-19T07:32:35.494Z,82.04
2023-01-19T07:35:02.942Z,82.84
2023-01-19T07:37:29.627Z,82.14
2023-01-19T07:39:56.319Z,81.74
2023-01-19T07:42:23.074Z,81.57
2023-01-19T07:44:50.161Z,81.33
2023-01-19T07:47:17.344Z,81.49
2023-01-19T07:49:45.802Z,81.05
2023-01-19T07:52:13.298Z,81.09
2023-01-19T07:54:42.841Z,81.10
2023-01-19T07:57:12.633Z,81.36
2023-01-19T07:59:42.200Z,81.17
2023-01-19T08:02:10.157Z,81.51
2023-01-19T08:04:38.087Z,81.52
2023-01-19T08:07:05.116Z,81.39
2023-01-19T08:09:32.171Z,81.04
2023-01-19T08:12:06.197Z,80.98
2023-01-19T08:14:33.453Z,80.57
2023-01-19T08:17:00.871Z,80.82
2023-01-19T08:19:27.752Z,81.44
2023-01-19T08:21:54.731Z,81.00
2023-01-19T08:24:22.957Z,80.18
2023-01-19T08:26:49.789Z,79.36
2023-01-19T08:29:16.886Z,79.94
2023-01-19T08:31:46.699Z,79.94
2023-01-19T08:34:13.848Z,80.13
2023-01-19T08:36:41.063Z,79.64
2023-01-19T08:39:07.795Z,79.37
2023-01-19T08:41:34.513Z,79.47
2023-01-19T08:44:04.193Z,78.92
2023-01-19T08:46:30.977Z,78.40
2023-01-19T08:48:59.250Z,79.04
2023-01-19T08:51:26.335Z,77.23
2023-01-19T08:53:54.134Z,75.05
2023-01-19T08:56:20.976Z,74.57
2023-01-19T08:58:53.608Z,74.17
2023-01-19T09:01:33.202Z,73.54
2023-01-19T09:04:02.847Z,73.37
2023-01-19T09:06:29.893Z,71.96
2023-01-19T09:08:59.380Z,68.97
2023-01-19T09:11:26.332Z,67.39
2023-01-19T09:13:56.011Z,66.67
2023-01-19T09:16:22.945Z,66.42
2023-01-19T09:18:50.333Z,66.88
2023-01-19T09:21:18.559Z,65.76
2023-01-19T09:23:45.408Z,64.58
2023-01-19T09:26:19.177Z,65.77
2023-01-19T09:28:46.132Z,62.55
2023-01-19T09:31:13.002Z,62.04
2023-01-19T09:33:40.185Z,63.69
2023-01-19T09:36:07.312Z,58.05
2023-01-19T09:38:35.430Z,56.21
2023-01-19T09:41:02.109Z,54.76
2023-01-19T09:43:35.296Z,56.15
2023-01-19T09:46:12.721Z,60.25
2023-01-19T09:48:45.652Z,55.43
2023-01-19T09:51:20.365Z,54.07
2023-01-19T09:53:47.270Z,56.51
2023-01-19T09:56:14.957Z,55.12
2023-01-19T09:58:41.791Z,58.06
2023-01-19T10:01:36.500Z,59.83
2023-01-19T10:04:38.545Z,61.98
2023-01-19T10:07:30.047Z,60.15
2023-01-19T10:10:22.609Z,57.63
2023-01-19T10:13:01.385Z,56.96
2023-01-19T10:15:37.944Z,57.88
2023-01-19T10:18:28.112Z,62.22
2023-01-19T10:21:04.648Z,58.05
2023-01-19T10:23:50.926Z,59.86
2023-01-19T10:26:32.448Z,57.10
2023-01-19T10:29:06.694Z,53.43
2023-01-19T10:31:34.775Z,53.64
2023-01-19T10:34:11.052Z,56.43
2023-01-19T10:36:38.257Z,56.10
2023-01-19T10:39:06.086Z,54.76
2023-01-19T10:42:03.376Z,52.25
2023-01-19T10:44:37.134Z,49.84
2023-01-19T10:47:04.751Z,51.12
2023-01-19T10:49:41.263Z,51.00
2023-01-19T10:52:08.987Z,53.42
2023-01-19T10:54:37.814Z,50.90
2023-01-19T10:57:10.797Z,53.70
2023-01-19T10:59:49.640Z,53.56
2023-01-19T11:02:29.270Z,53.03
2023-01-19T11:05:00.656Z,54.70
2023-01-19T11:07:31.879Z,56.90
2023-01-19T11:10:17.452Z,53.63
2023-01-19T11:13:07.203Z,50.46
2023-01-19T11:15:48.540Z,51.99
2023-01-19T11:18:24.565Z,53.54
2023-01-19T11:20:52.737Z,53.11
2023-01-19T11:23:27.681Z,53.33
2023-01-19T11:25:56.508Z,52.82
2023-01-19T11:28:42.018Z,50.23
2023-01-19T11:31:19.877Z,53.53
2023-01-19T11:33:53.689Z,53.45
2023-01-19T11:36:23.994Z,50.28
2023-01-19T11:39:01.900Z,50.31
2023-01-19T11:41:33.379Z,48.47
2023-01-19T11:44:32.159Z,47.92
2023-01-19T11:47:00.687Z,45.23
2023-01-19T11:50:06.542Z,49.48
2023-01-19T11:52:40.069Z,51.50
2023-01-19T11:55:18.905Z,51.54
2023-01-19T11:57:46.412Z,49.54
2023-01-19T12:00:44.965Z,52.79
2023-01-19T12:03:22.789Z,55.23
2023-01-19T12:05:51.906Z,57.12
2023-01-19T12:09:10.629Z,57.07
2023-01-19T12:11:38.947Z,55.94
2023-01-19T12:14:09.383Z,55.86
2023-01-19T12:16:36.151Z,53.76
2023-01-19T12:19:05.528Z,56.69
2023-01-19T12:21:35.105Z,55.69
2023-01-19T12:24:18.206Z,51.76
2023-01-19T12:26:51.330Z,50.69
2023-01-19T12:29:19.876Z,48.36
2023-01-19T12:31:49.391Z,49.66
2023-01-19T12:34:39.025Z,49.87
2023-01-19T12:37:06.695Z,49.03
2023-01-19T12:39:33.716Z,51.36
2023-01-19T12:42:21.519Z,52.38
2023-01-19T12:44:48.285Z,49.01
2023-01-19T12:47:19.442Z,47.80
2023-01-19T12:49:55.149Z,51.83
2023-01-19T12:52:28.762Z,51.46
2023-01-19T12:55:31.027Z,53.58
2023-01-19T12:58:14.932Z,49.41
2023-01-19T13:00:42.417Z,47.33
2023-01-19T13:03:30.468Z,46.84
2023-01-19T13:05:57.758Z,44.94
2023-01-19T13:08:26.032Z,45.72
2023-01-19T13:11:13.381Z,48.00
2023-01-19T13:13:46.504Z,48.52
2023-01-19T13:16:19.807Z,48.65
2023-01-19T13:18:50.863Z,46.88
2023-01-19T13:21:36.947Z,47.54
2023-01-19T13:24:05.573Z,49.75
2023-01-19T13:26:50.279Z,47.56
2023-01-19T13:29:29.918Z,47.45
2023-01-19T13:31:58.604Z,47.16
2023-01-19T13:34:25.952Z,49.24
2023-01-19T13:36:56.637Z,50.99
2023-01-19T13:39:28.760Z,50.62
2023-01-19T13:41:57.487Z,51.79
2023-01-19T13:44:26.265Z,54.47
2023-01-19T13:46:53.109Z,54.68
2023-01-19T13:49:27.303Z,50.98
2023-01-19T13:52:10.043Z,51.18
2023-01-19T13:55:02.333Z,51.05
2023-01-19T13:57:33.998Z,49.18
2023-01-19T14:00:16.474Z,48.28
2023-01-19T14:03:03.007Z,51.86
2023-01-19T14:05:38.008Z,53.24
2023-01-19T14:08:14.102Z,50.68
2023-01-19T14:10:45.583Z,51.11
2023-01-19T14:13:23.119Z,48.47
2023-01-19T14:15:55.171Z,56.44
2023-01-19T14:18:25.691Z,55.23
2023-01-19T14:21:00.483Z,51.98
2023-01-19T14:23:52.428Z,51.03
2023-01-19T14:26:38.686Z,50.42
2023-01-19T14:29:27.307Z,48.34
2023-01-19T14:32:14.666Z,47.73
2023-01-19T14:34:56.902Z,46.37
2023-01-19T14:37:28.280Z,46.29
2023-01-19T14:40:13.273Z,50.32
2023-01-19T14:42:59.217Z,52.76
2023-01-19T14:45:36.990Z,50.92
2023-01-19T14:48:26.685Z,57.68
2023-01-19T14:51:02.726Z,58.72
2023-01-19T14:53:37.949Z,56.29
2023-01-19T14:56:06.243Z,54.65
2023-01-19T14:58:36.380Z,53.45
2023-01-19T15:01:06.938Z,50.83
2023-01-19T15:03:44.064Z,51.46
2023-01-19T15:06:17.597Z,53.56
2023-01-19T15:08:44.420Z,54.42
2023-01-19T15:11:32.053Z,55.15
2023-01-19T15:14:01.896Z,53.59
2023-01-19T15:16:29.470Z,53.79
2023-01-19T15:18:56.414Z,57.25
2023-01-19T15:21:23.565Z,59.76
2023-01-19T15:23:50.442Z,59.84
2023-01-19T15:26:18.273Z,56.41
2023-01-19T15:28:48.025Z,55.52
2023-01-19T15:31:26.292Z,55.69
2023-01-19T15:33:53.089Z,54.87
2023-01-19T15:36:21.180Z,52.94
2023-01-19T15:38:50.920Z,52.32
2023-01-19T15:41:29.686Z,54.52
2023-01-19T15:43:56.529Z,55.18
2023-01-19T15:46:23.847Z,53.00
2023-01-19T15:48:50.746Z,53.11
2023-01-19T15:51:19.476Z,54.60
2023-01-19T15:53:46.435Z,55.45
2023-01-19T15:56:20.366Z,61.43
2023-01-19T15:58:47.428Z,60.54
2023-01-19T16:01:32.779Z,59.21
2023-01-19T16:04:00.446Z,60.47
2023-01-19T16:06:27.312Z,62.78
2023-01-19T16:08:55.084Z,62.03
2023-01-19T16:11:22.714Z,61.26
2023-01-19T16:13:52.284Z,60.94
2023-01-19T16:16:21.396Z,61.14
2023-01-19T16:18:51.053Z,60.50
2023-01-19T16:21:17.817Z,60.62
2023-01-19T16:23:44.504Z,64.44
2023-01-19T16:26:25.648Z,67.67
2023-01-19T16:28:52.436Z,70.87
2023-01-19T16:31:22.163Z,71.14
2023-01-19T16:33:49.373Z,71.56
2023-01-19T16:36:29.766Z,67.46
2023-01-19T16:39:14.877Z,71.70
2023-01-19T16:41:42.139Z,73.90
2023-01-19T16:44:10.340Z,75.56
2023-01-19T16:46:40.815Z,75.60
2023-01-19T16:49:18.107Z,72.21
2023-01-19T16:51:45.037Z,73.37
2023-01-19T16:54:16.237Z,73.47
2023-01-19T16:56:42.924Z,74.55
2023-01-19T16:59:14.252Z,75.46
2023-01-19T17:01:42.527Z,75.13
2023-01-19T17:04:09.773Z,75.75
2023-01-19T17:06:36.789Z,77.18
2023-01-19T17:09:03.577Z,76.45
2023-01-19T17:11:31.190Z,77.81
2023-01-19T17:14:00.374Z,78.72
2023-01-19T17:16:30.455Z,78.75
2023-01-19T17:18:57.851Z,79.77
2023-01-19T17:21:26.502Z,79.82
2023-01-19T17:23:54.946Z,80.49
2023-01-19T17:26:22.249Z,80.52
2023-01-19T17:28:48.998Z,80.33
2023-01-19T17:31:20.718Z,80.76
2023-01-19T17:33:49.124Z,81.06
2023-01-19T17:36:17.881Z,81.01
2023-01-19T17:38:44.913Z,81.10
2023-01-19T17:41:22.058Z,81.34
2023-01-19T17:43:51.798Z,80.97
2023-01-19T17:46:19.584Z,81.21
2023-01-19T17:48:54.092Z,81.99
2023-01-19T17:51:21.396Z,82.10
2023-01-19T17:53:48.693Z,82.12
2023-01-19T17:56:16.155Z,82.05
2023-01-19T17:58:44.011Z,81.56
2023-01-19T18:01:12.593Z,82.37
2023-01-19T18:03:39.384Z,81.68
2023-01-19T18:06:07.218Z,81.40
2023-01-19T18:08:34.028Z,81.31
2023-01-19T18:11:09.413Z,81.69
2023-01-19T18:13:36.215Z,81.70
2023-01-19T18:16:04.715Z,82.15
2023-01-19T18:18:35.032Z,82.07
2023-01-19T18:21:03.126Z,82.27
2023-01-19T18:23:32.800Z,82.63
2023-01-19T18:26:06.221Z,82.82
2023-01-19T18:28:33.163Z,82.40
2023-01-19T18:31:14.680Z,82.19
2023-01-19T18:33:41.443Z,81.61
2023-01-19T18:36:22.396Z,78.99
2023-01-19T18:38:49.474Z,78.97
2023-01-19T18:41:17.904Z,78.43
2023-01-19T18:43:44.654Z,77.78
2023-01-19T18:46:14.562Z,77.13
2023-01-19T18:48:41.756Z,76.71
2023-01-19T18:51:10.423Z,76.13
2023-01-19T18:53:37.739Z,74.91
2023-01-19T18:56:05.705Z,74.69
2023-01-19T18:58:36.932Z,75.95
2023-01-19T19:01:05.075Z,75.90
2023-01-19T19:03:40.753Z,76.34
2023-01-19T19:06:07.984Z,74.87
2023-01-19T19:08:34.917Z,74.45
2023-01-19T19:11:01.600Z,73.48
2023-01-19T19:13:28.349Z,71.70
2023-01-19T19:16:02.094Z,72.02
2023-01-19T19:18:29.235Z,73.76
2023-01-19T19:20:56.024Z,74.96
2023-01-19T19:23:25.712Z,74.82
2023-01-19T19:25:54.751Z,76.79
2023-01-19T19:28:24.490Z,76.77
2023-01-19T19:31:04.299Z,75.21
2023-01-19T19:33:35.928Z,74.88
2023-01-19T19:36:02.835Z,75.51
2023-01-19T19:38:30.351Z,73.20
2023-01-19T19:41:20.539Z,73.22
2023-01-19T19:43:47.696Z,73.00
2023-01-19T19:46:15.581Z,71.92
2023-01-19T19:48:42.655Z,71.61
2023-01-19T19:51:19.361Z,71.33
2023-01-19T19:53:47.039Z,71.95
2023-01-19T19:56:18.970Z,72.01
2023-01-19T19:58:45.709Z,71.05
2023-01-19T20:01:20.727Z,69.18
2023-01-19T20:03:48.140Z,70.02
2023-01-19T20:06:17.146Z,70.43
2023-01-19T20:08:43.937Z,71.78
2023-01-19T20:11:16.564Z,74.07
2023-01-19T20:13:46.207Z,74.59
2023-01-19T20:16:15.794Z,75.47
2023-01-19T20:18:43.432Z,75.04
2023-01-19T20:21:40.396Z,77.36
2023-01-19T20:24:09.831Z,74.08
2023-01-19T20:26:39.610Z,76.30
2023-01-19T20:29:07.351Z,75.43
2023-01-19T20:31:35.838Z,74.05
2023-01-19T20:34:06.179Z,75.03
2023-01-19T20:36:32.972Z,73.82
2023-01-19T20:38:59.689Z,75.24
2023-01-19T20:41:27.256Z,74.49
2023-01-19T20:43:53.970Z,72.79
2023-01-19T20:46:21.089Z,76.74
2023-01-19T20:48:47.909Z,77.63
2023-01-19T20:51:14.750Z,74.20
2023-01-19T20:53:44.312Z,75.19
2023-01-19T20:56:11.941Z,74.18
2023-01-19T20:58:39.661Z,72.21
2023-01-19T21:01:13.240Z,69.63
2023-01-19T21:03:40.190Z,67.92
2023-01-19T21:06:12.297Z,67.86
2023-01-19T21:08:39.070Z,73.81
2023-01-19T21:11:06.043Z,72.64
2023-01-19T21:13:32.885Z,77.91
2023-01-19T21:16:01.936Z,79.62
2023-01-19T21:18:28.845Z,77.52
2023-01-19T21:20:55.725Z,76.64
2023-01-19T21:23:22.972Z,77.65
2023-01-19T21:25:50.889Z,78.38
2023-01-19T21:28:18.761Z,75.94
2023-01-19T21:30:45.824Z,77.59
2023-01-19T21:33:12.640Z,78.49
2023-01-19T21:35:39.329Z,79.55
2023-01-19T21:38:07.106Z,79.23
2023-01-19T21:40:33.843Z,79.19
2023-01-19T21:43:01.748Z,78.94
2023-01-19T21:45:28.673Z,77.71
2023-01-19T21:47:55.963Z,75.94
2023-01-19T21:50:23.584Z,76.29
2023-01-19T21:52:50.560Z,76.27
2023-01-19T21:55:17.586Z,76.58
2023-01-19T21:57:45.018Z,74.53
2023-01-19T22:00:11.864Z,76.03
2023-01-19T22:02:39.349Z,75.67
2023-01-19T22:05:06.716Z,77.60
2023-01-19T22:07:33.473Z,77.82
2023-01-19T22:10:00.786Z,75.14
2023-01-19T22:12:30.415Z,76.15
2023-01-19T22:14:57.091Z,73.37
2023-01-19T22:17:24.624Z,71.58
2023-01-19T22:19:54.282Z,72.24
2023-01-19T22:22:21.036Z,70.34
2023-01-19T22:24:50.539Z,69.25
2023-01-19T22:27:17.650Z,72.95
2023-01-19T22:29:44.437Z,72.47
2023-01-19T22:32:11.128Z,69.67
2023-01-19T22:34:38.193Z,69.93
2023-01-19T22:37:06.024Z,70.81
2023-01-19T22:39:32.717Z,73.77
2023-01-19T22:42:00.289Z,74.01
2023-01-19T22:44:27.724Z,74.88
2023-01-19T22:46:55.366Z,74.86
2023-01-19T22:49:23.342Z,74.61
2023-01-19T22:51:50.173Z,74.08
2023-01-19T22:54:17.293Z,74.03
2023-01-19T22:56:45.412Z,73.37
2023-01-19T22:59:12.545Z,73.17
2023-01-19T23:01:41.045Z,72.80
2023-01-19T23:04:08.733Z,73.00
2023-01-19T23:06:36.182Z,72.40
2023-01-19T23:09:08.162Z,71.67
2023-01-19T23:11:36.950Z,71.99
2023-01-19T23:14:04.915Z,71.56
2023-01-19T23:16:32.171Z,71.56
2023-01-19T23:18:59.000Z,71.21
2023-01-19T23:21:27.151Z,70.21
2023-01-19T23:23:55.549Z,69.79
2023-01-19T23:26:23.166Z,70.94
2023-01-19T23:29:02.136Z,69.84
2023-01-19T23:31:48.833Z,70.67
2023-01-19T23:34:15.837Z,70.76
2023-01-19T23:36:46.486Z,72.07
2023-01-19T23:39:18.262Z,74.11
2023-01-19T23:41:45.031Z,75.91
2023-01-19T23:44:20.555Z,73.45
2023-01-19T23:46:48.698Z,70.42
2023-01-19T23:49:15.465Z,72.37
2023-01-19T23:51:42.511Z,72.08
2023-01-19T23:54:10.261Z,71.29
2023-01-19T23:56:37.544Z,71.48
2023-01-19T23:59:12.878Z,71.59
